createdAt,value
2022-07-29T00:00:41.189Z,0
2022-07-29T00:06:26.026Z,0
2022-07-29T00:11:51.937Z,0
2022-07-29T00:17:15.249Z,0
2022-07-29T00:22:55.615Z,0
2022-07-29T00:28:32.931Z,0
2022-07-29T00:34:11.718Z,0
2022-07-29T00:39:57.230Z,0
2022-07-29T00:45:10.228Z,0
2022-07-29T00:50:49.657Z,0
2022-07-29T00:56:42.105Z,0
2022-07-29T01:02:10.574Z,0
2022-07-29T01:07:58.734Z,0
2022-07-29T01:13:21.627Z,0
2022-07-29T01:19:04.059Z,5.9
2022-07-29T01:24:35.922Z,8.4
2022-07-29T01:30:07.677Z,7.2
2022-07-29T01:35:49.161Z,7.2
2022-07-29T01:41:24.087Z,7.2
2022-07-29T01:46:46.447Z,7.2
2022-07-29T01:52:42.698Z,8.4
2022-07-29T01:58:13.669Z,8.4
2022-07-29T02:04:00.424Z,7.2
2022-07-29T02:09:17.243Z,5.9
2022-07-29T02:15:13.320Z,0
2022-07-29T02:20:35.105Z,0
2022-07-29T02:26:11.430Z,0
2022-07-29T02:31:55.700Z,0
2022-07-29T02:37:15.461Z,0
2022-07-29T02:43:03.314Z,0
2022-07-29T02:48:22.309Z,0
2022-07-29T02:53:54.621Z,0
2022-07-29T02:59:28.605Z,0
2022-07-29T03:05:13.272Z,0
2022-07-29T03:11:03.861Z,0
2022-07-29T03:16:20.923Z,0
2022-07-29T03:21:53.656Z,0
2022-07-29T03:27:40.066Z,0
2022-07-29T03:33:22.965Z,0
2022-07-29T03:38:56.120Z,0
2022-07-29T03:44:11.887Z,0
2022-07-29T03:49:50.669Z,0
2022-07-29T03:55:22.924Z,0
2022-07-29T04:01:10.053Z,0
2022-07-29T04:06:41.490Z,3.6
2022-07-29T04:12:15.749Z,0
2022-07-29T04:18:02.142Z,0
2022-07-29T04:23:25.844Z,0
2022-07-29T04:29:09.665Z,0
2022-07-29T04:34:44.278Z,0
2022-07-29T04:40:12.575Z,0
2022-07-29T04:45:37.526Z,0
2022-07-29T04:51:30.531Z,0
2022-07-29T04:57:10.809Z,0
2022-07-29T05:02:37.087Z,2.4
2022-07-29T05:08:16.251Z,3.6
2022-07-29T05:13:45.117Z,5.9
2022-07-29T05:19:34.396Z,5.9
2022-07-29T05:25:09.080Z,0
2022-07-29T05:30:38.202Z,0
2022-07-29T05:36:16.054Z,0
2022-07-29T05:41:46.618Z,0
2022-07-29T05:47:08.263Z,0
2022-07-29T05:52:42.784Z,0
2022-07-29T05:58:34.065Z,0
2022-07-29T06:04:08.626Z,0
2022-07-29T06:09:29.879Z,0
2022-07-29T06:15:20.524Z,0
2022-07-29T06:20:59.445Z,0
2022-07-29T06:26:14.636Z,0
2022-07-29T06:32:11.540Z,0
2022-07-29T06:37:44.350Z,0
2022-07-29T06:42:59.766Z,0
2022-07-29T06:49:00.622Z,0
2022-07-29T06:54:36.465Z,0
2022-07-29T06:59:50.459Z,0
2022-07-29T07:05:32.556Z,0
2022-07-29T07:10:59.486Z,0
2022-07-29T07:16:57.870Z,0
2022-07-29T07:22:38.718Z,0
2022-07-29T07:28:02.339Z,0
2022-07-29T07:33:19.343Z,0
2022-07-29T07:39:03.253Z,0
2022-07-29T07:44:51.484Z,7.2
2022-07-29T07:50:33.579Z,8.4
2022-07-29T07:56:09.212Z,5.9
2022-07-29T08:01:30.461Z,7.2
2022-07-29T08:07:06.813Z,4.8
2022-07-29T08:12:46.836Z,4.8
2022-07-29T08:18:44.241Z,4.8
2022-07-29T08:24:02.959Z,3.6
2022-07-29T08:29:34.334Z,4.8
2022-07-29T08:35:30.021Z,5.9
2022-07-29T08:40:55.074Z,4.8
2022-07-29T08:46:51.927Z,4.8
2022-07-29T08:52:12.106Z,2.4
2022-07-29T08:57:51.049Z,3.6
2022-07-29T09:03:41.707Z,8.4
2022-07-29T09:09:01.005Z,5.9
2022-07-29T09:14:50.036Z,5.9
2022-07-29T09:20:31.843Z,7.2
2022-07-29T09:25:55.215Z,3.6
2022-07-29T09:31:35.780Z,0
2022-07-29T09:37:17.125Z,3.6
2022-07-29T09:43:01.061Z,5.9
2022-07-29T09:48:50.412Z,5.9
2022-07-29T09:54:32.303Z,7.2
2022-07-29T09:59:52.773Z,4.8
2022-07-29T10:05:43.626Z,7.2
2022-07-29T10:11:05.839Z,4.8
2022-07-29T10:16:52.406Z,8.4
2022-07-29T10:22:52.274Z,7.2
2022-07-29T10:28:16.190Z,5.9
2022-07-29T10:33:28.508Z,4.8
2022-07-29T10:39:16.828Z,4.8
2022-07-29T10:45:09.363Z,0
2022-07-29T10:50:28.322Z,3.6
2022-07-29T10:55:58.923Z,4.8
2022-07-29T11:02:06.314Z,0
2022-07-29T11:07:17.807Z,0
2022-07-29T11:13:14.032Z,0
2022-07-29T11:18:47.197Z,0
2022-07-29T11:24:18.562Z,0
2022-07-29T11:29:50.330Z,0
2022-07-29T11:35:39.689Z,0
2022-07-29T11:40:53.758Z,0
2022-07-29T11:46:53.818Z,0
2022-07-29T11:52:33.148Z,0
2022-07-29T11:58:03.635Z,0
2022-07-29T12:03:38.352Z,0
2022-07-29T12:09:01.626Z,0
2022-07-29T12:14:45.538Z,0
2022-07-29T12:20:37.906Z,0
2022-07-29T12:25:49.614Z,0
2022-07-29T12:31:51.855Z,0
2022-07-29T12:37:13.672Z,5.9
2022-07-29T12:42:39.969Z,4.8
2022-07-29T12:48:25.053Z,5.9
2022-07-29T12:53:58.179Z,4.8
2022-07-29T12:59:33.459Z,5.9
2022-07-29T13:05:21.766Z,9.6
2022-07-29T13:10:54.043Z,5.9
2022-07-29T13:16:47.971Z,8.4
2022-07-29T13:21:58.606Z,10.7
2022-07-29T13:27:36.790Z,11.9
2022-07-29T13:33:20.351Z,10.7
2022-07-29T13:38:48.623Z,11.9
2022-07-29T13:44:25.449Z,10.7
2022-07-29T13:50:28.521Z,9.6
2022-07-29T13:55:50.268Z,8.4
2022-07-29T14:01:32.844Z,9.6
2022-07-29T14:06:50.389Z,9.6
2022-07-29T14:12:51.718Z,7.2
2022-07-29T14:18:11.680Z,7.2
2022-07-29T14:23:42.377Z,7.2
2022-07-29T14:29:46.257Z,9.6
2022-07-29T14:35:00.813Z,5.9
2022-07-29T14:40:58.514Z,8.4
2022-07-29T14:46:23.118Z,4.8
2022-07-29T14:52:01.777Z,5.9
2022-07-29T14:57:28.187Z,5.9
2022-07-29T15:03:23.047Z,4.8
2022-07-29T15:08:53.656Z,5.9
2022-07-29T15:14:22.011Z,7.2
2022-07-29T15:19:53.067Z,4.8
2022-07-29T15:25:33.877Z,5.9
2022-07-29T15:31:07.523Z,5.9
2022-07-29T15:36:53.471Z,4.8
2022-07-29T15:42:34.797Z,5.9
2022-07-29T15:48:02.631Z,5.9
2022-07-29T15:53:53.406Z,7.2
2022-07-29T15:59:22.852Z,7.2
2022-07-29T16:05:00.944Z,4.8
2022-07-29T16:10:53.771Z,5.9
2022-07-29T16:16:11.796Z,3.6
2022-07-29T16:22:02.929Z,0
2022-07-29T16:27:45.171Z,0
2022-07-29T16:32:59.463Z,0
2022-07-29T16:38:47.139Z,0
2022-07-29T16:44:14.370Z,5.9
2022-07-29T16:50:10.266Z,0
2022-07-29T16:55:31.554Z,0
2022-07-29T17:01:08.986Z,2.4
2022-07-29T17:06:45.462Z,0
2022-07-29T17:12:30.782Z,0
2022-07-29T17:18:12.378Z,0
2022-07-29T17:23:29.891Z,0
2022-07-29T17:29:26.589Z,0
2022-07-29T17:34:45.561Z,0
2022-07-29T17:40:32.972Z,0
2022-07-29T17:46:09.857Z,4.8
2022-07-29T17:51:44.096Z,5.9
2022-07-29T17:57:29.295Z,5.9
2022-07-29T18:03:10.588Z,7.2
2022-07-29T18:08:42.845Z,9.6
2022-07-29T18:14:02.567Z,9.6
2022-07-29T18:19:35.652Z,7.2
2022-07-29T18:25:23.067Z,7.2
2022-07-29T18:31:03.073Z,8.4
2022-07-29T18:36:39.283Z,5.9
2022-07-29T18:42:18.816Z,7.2
2022-07-29T18:48:03.412Z,8.4
2022-07-29T18:53:17.059Z,8.4
2022-07-29T18:58:56.922Z,8.4
2022-07-29T19:04:42.554Z,7.2
2022-07-29T19:10:29.541Z,5.9
2022-07-29T19:15:59.501Z,5.9
2022-07-29T19:21:46.553Z,3.6
2022-07-29T19:27:20.131Z,0
2022-07-29T19:32:36.825Z,0
2022-07-29T19:38:33.100Z,0
2022-07-29T19:44:09.974Z,0
2022-07-29T19:49:40.936Z,0
2022-07-29T19:55:13.999Z,3.6
2022-07-29T20:00:41.106Z,0
2022-07-29T20:06:10.620Z,0
2022-07-29T20:12:05.633Z,0
2022-07-29T20:17:29.291Z,0
2022-07-29T20:22:53.040Z,0
2022-07-29T20:28:27.218Z,0
2022-07-29T20:33:58.422Z,0
2022-07-29T20:39:35.745Z,0
2022-07-29T20:45:39.115Z,0
2022-07-29T20:50:59.648Z,0
2022-07-29T20:56:36.723Z,4.8
2022-07-29T21:02:12.119Z,4.8
2022-07-29T21:07:58.163Z,4.8
2022-07-29T21:13:19.567Z,4.8
2022-07-29T21:18:52.696Z,0
2022-07-29T21:24:41.452Z,0
2022-07-29T21:30:01.650Z,0
2022-07-29T21:36:03.779Z,0
2022-07-29T21:41:08.380Z,0
2022-07-29T21:46:55.986Z,0
2022-07-29T21:52:25.731Z,0
2022-07-29T21:58:15.881Z,0
2022-07-29T22:03:24.523Z,0
2022-07-29T22:09:10.722Z,0
2022-07-29T22:14:48.152Z,0
2022-07-29T22:20:17.806Z,0
2022-07-29T22:26:05.550Z,0
2022-07-29T22:31:33.796Z,0
2022-07-29T22:37:00.697Z,0
2022-07-29T22:42:29.382Z,0
2022-07-29T22:48:28.814Z,0
2022-07-29T22:53:54.377Z,0
2022-07-29T22:59:37.541Z,0
2022-07-29T23:05:11.993Z,0
2022-07-29T23:10:43.442Z,0
2022-07-29T23:16:10.332Z,0
2022-07-29T23:21:58.041Z,0
2022-07-29T23:27:05.970Z,0
2022-07-29T23:32:46.492Z,0
2022-07-29T23:38:17.591Z,3.6
2022-07-29T23:44:01.003Z,0
2022-07-29T23:49:30.056Z,0
2022-07-29T23:55:36.165Z,0
